Terminal Aerodrome Forecast
Issued by NWS Upton, NY

Home | Current Version | Previous Version | Text Only | Print | Product List | Glossary On
Versions: 1 2 3 4 5 6 7 8 9 10 11 12 13 14 15 16 17 18 19 20 21 22 23 24 25 26 27 28 29 30 31
325
FTUS41 KOKX 240831 AAA
TAFISP
TAF AMD
KISP 240831Z 2409/2506 19004KT P6SM FEW250
     FM241200 20008KT P6SM BKN120
     FM241400 20014G22KT P6SM OVC080
      TEMPO 2416/2420 6SM -RA BKN040
     FM242000 22015G23KT P6SM OVC040
     FM242300 20008KT P6SM OVC040
     FM250400 23008KT P6SM SCT040 BKN080=

USA.gov is the U.S. government's official web portal to all federal, state and local government web resources and services.